sensor_id;sensor_type;location;lat;lon;timestamp;temperature;humidity
2945;DHT22;1482;51.398;7.128;2022-08-11T00:01:48;20.70;1.00
2945;DHT22;1482;51.398;7.128;2022-08-11T00:04:15;20.70;1.00
2945;DHT22;1482;51.398;7.128;2022-08-11T00:06:44;20.60;1.00
2945;DHT22;1482;51.398;7.128;2022-08-11T00:09:15;20.60;1.00
2945;DHT22;1482;51.398;7.128;2022-08-11T00:11:54;20.50;1.00
2945;DHT22;1482;51.398;7.128;2022-08-11T00:14:32;20.50;1.00
2945;DHT22;1482;51.398;7.128;2022-08-11T00:17:01;20.40;1.00
2945;DHT22;1482;51.398;7.128;2022-08-11T00:19:41;20.30;1.00
2945;DHT22;1482;51.398;7.128;2022-08-11T00:22:09;20.30;1.00
2945;DHT22;1482;51.398;7.128;2022-08-11T00:24:37;20.30;1.00
2945;DHT22;1482;51.398;7.128;2022-08-11T00:27:04;20.20;1.00
2945;DHT22;1482;51.398;7.128;2022-08-11T00:29:30;20.20;1.00
2945;DHT22;1482;51.398;7.128;2022-08-11T00:31:57;20.20;1.00
2945;DHT22;1482;51.398;7.128;2022-08-11T00:34:28;20.20;1.00
2945;DHT22;1482;51.398;7.128;2022-08-11T00:37:00;20.20;1.00
2945;DHT22;1482;51.398;7.128;2022-08-11T00:39:30;20.20;1.00
2945;DHT22;1482;51.398;7.128;2022-08-11T00:45:08;20.20;1.00
2945;DHT22;1482;51.398;7.128;2022-08-11T00:50:46;20.20;1.00
2945;DHT22;1482;51.398;7.128;2022-08-11T01:02:16;20.10;1.00
2945;DHT22;1482;51.398;7.128;2022-08-11T01:05:15;20.00;1.00
2945;DHT22;1482;51.398;7.128;2022-08-11T01:13:43;19.80;1.00
2945;DHT22;1482;51.398;7.128;2022-08-11T01:16:51;19.80;1.00
2945;DHT22;1482;51.398;7.128;2022-08-11T01:40:14;19.30;1.00
2945;DHT22;1482;51.398;7.128;2022-08-11T01:48:41;19.20;1.00
2945;DHT22;1482;51.398;7.128;2022-08-11T01:59:19;19.10;1.00
2945;DHT22;1482;51.398;7.128;2022-08-11T02:02:00;19.00;1.00
2945;DHT22;1482;51.398;7.128;2022-08-11T02:04:46;19.00;1.00
2945;DHT22;1482;51.398;7.128;2022-08-11T02:07:26;19.00;1.00
2945;DHT22;1482;51.398;7.128;2022-08-11T02:12:39;19.10;1.00
2945;DHT22;1482;51.398;7.128;2022-08-11T02:15:35;19.00;1.00
2945;DHT22;1482;51.398;7.128;2022-08-11T02:20:46;19.00;1.00
2945;DHT22;1482;51.398;7.128;2022-08-11T02:23:45;18.80;1.00
2945;DHT22;1482;51.398;7.128;2022-08-11T02:31:46;18.70;1.00
2945;DHT22;1482;51.398;7.128;2022-08-11T02:34:46;18.70;1.00
2945;DHT22;1482;51.398;7.128;2022-08-11T02:43:23;18.70;1.00
2945;DHT22;1482;51.398;7.128;2022-08-11T02:45:44;18.60;1.00
2945;DHT22;1482;51.398;7.128;2022-08-11T02:48:28;18.50;1.00
2945;DHT22;1482;51.398;7.128;2022-08-11T02:51:22;18.50;1.00
2945;DHT22;1482;51.398;7.128;2022-08-11T02:59:25;18.40;1.00
2945;DHT22;1482;51.398;7.128;2022-08-11T03:10:21;18.20;1.00
2945;DHT22;1482;51.398;7.128;2022-08-11T03:13:09;18.20;1.00
2945;DHT22;1482;51.398;7.128;2022-08-11T03:24:15;18.00;1.00
2945;DHT22;1482;51.398;7.128;2022-08-11T03:27:02;18.00;1.00
2945;DHT22;1482;51.398;7.128;2022-08-11T03:29:36;18.00;1.00
2945;DHT22;1482;51.398;7.128;2022-08-11T03:32:25;18.00;1.00
2945;DHT22;1482;51.398;7.128;2022-08-11T03:34:54;18.00;1.00
2945;DHT22;1482;51.398;7.128;2022-08-11T03:46:11;17.90;1.00
2945;DHT22;1482;51.398;7.128;2022-08-11T03:48:53;17.90;1.00
2945;DHT22;1482;51.398;7.128;2022-08-11T03:51:28;17.80;1.00
2945;DHT22;1482;51.398;7.128;2022-08-11T03:54:13;17.80;1.00
2945;DHT22;1482;51.398;7.128;2022-08-11T04:13:06;17.60;1.00
2945;DHT22;1482;51.398;7.128;2022-08-11T04:15:44;17.70;1.00
2945;DHT22;1482;51.398;7.128;2022-08-11T04:21:56;17.60;1.00
2945;DHT22;1482;51.398;7.128;2022-08-11T04:29:49;17.60;1.00
2945;DHT22;1482;51.398;7.128;2022-08-11T05:15:12;31.80;1.00
2945;DHT22;1482;51.398;7.128;2022-08-11T05:18:01;32.50;1.00
2945;DHT22;1482;51.398;7.128;2022-08-11T05:20:51;34.00;1.00
2945;DHT22;1482;51.398;7.128;2022-08-11T05:23:41;35.10;1.00
2945;DHT22;1482;51.398;7.128;2022-08-11T05:26:26;35.70;1.00
2945;DHT22;1482;51.398;7.128;2022-08-11T05:32:39;36.60;1.00
2945;DHT22;1482;51.398;7.128;2022-08-11T05:35:37;37.90;1.00
2945;DHT22;1482;51.398;7.128;2022-08-11T05:38:11;39.00;1.00
2945;DHT22;1482;51.398;7.128;2022-08-11T05:40:57;39.30;1.00
2945;DHT22;1482;51.398;7.128;2022-08-11T05:43:43;39.60;1.00
2945;DHT22;1482;51.398;7.128;2022-08-11T05:46:29;39.40;1.00
2945;DHT22;1482;51.398;7.128;2022-08-11T05:49:22;39.50;1.00
2945;DHT22;1482;51.398;7.128;2022-08-11T05:52:14;40.60;1.00
2945;DHT22;1482;51.398;7.128;2022-08-11T05:55:04;41.50;1.00
2945;DHT22;1482;51.398;7.128;2022-08-11T05:57:54;42.80;1.00
2945;DHT22;1482;51.398;7.128;2022-08-11T06:00:21;42.40;1.00
2945;DHT22;1482;51.398;7.128;2022-08-11T06:02:53;43.40;1.00
2945;DHT22;1482;51.398;7.128;2022-08-11T06:05:20;43.40;1.00
2945;DHT22;1482;51.398;7.128;2022-08-11T06:07:47;44.30;1.00
2945;DHT22;1482;51.398;7.128;2022-08-11T06:10:58;45.20;1.00
2945;DHT22;1482;51.398;7.128;2022-08-11T06:13:16;44.90;1.00
2945;DHT22;1482;51.398;7.128;2022-08-11T06:15:45;45.60;1.00
2945;DHT22;1482;51.398;7.128;2022-08-11T06:18:11;45.20;1.00
2945;DHT22;1482;51.398;7.128;2022-08-11T06:20:49;45.80;1.00
2945;DHT22;1482;51.398;7.128;2022-08-11T06:23:16;46.20;1.00
2945;DHT22;1482;51.398;7.128;2022-08-11T06:25:44;45.30;1.00
2945;DHT22;1482;51.398;7.128;2022-08-11T06:28:10;46.10;1.00
2945;DHT22;1482;51.398;7.128;2022-08-11T06:30:42;46.10;1.00
2945;DHT22;1482;51.398;7.128;2022-08-11T06:33:44;47.10;1.00
2945;DHT22;1482;51.398;7.128;2022-08-11T06:41:35;48.40;1.00
2945;DHT22;1482;51.398;7.128;2022-08-11T06:46:36;50.10;1.00
2945;DHT22;1482;51.398;7.128;2022-08-11T06:49:05;50.10;1.00
2945;DHT22;1482;51.398;7.128;2022-08-11T06:51:51;50.90;1.00
2945;DHT22;1482;51.398;7.128;2022-08-11T06:54:19;51.80;1.00
2945;DHT22;1482;51.398;7.128;2022-08-11T06:56:46;52.40;1.00
2945;DHT22;1482;51.398;7.128;2022-08-11T06:59:33;53.10;1.00
2945;DHT22;1482;51.398;7.128;2022-08-11T07:02:32;52.10;1.00
2945;DHT22;1482;51.398;7.128;2022-08-11T07:13:37;52.60;1.00
2945;DHT22;1482;51.398;7.128;2022-08-11T07:16:27;53.60;1.00
2945;DHT22;1482;51.398;7.128;2022-08-11T07:19:03;54.50;1.00
2945;DHT22;1482;51.398;7.128;2022-08-11T07:21:48;53.60;1.00
2945;DHT22;1482;51.398;7.128;2022-08-11T07:24:43;54.40;1.00
2945;DHT22;1482;51.398;7.128;2022-08-11T07:27:45;54.30;1.00
2945;DHT22;1482;51.398;7.128;2022-08-11T07:30:32;55.30;1.00
2945;DHT22;1482;51.398;7.128;2022-08-11T07:33:00;55.20;1.00
2945;DHT22;1482;51.398;7.128;2022-08-11T07:38:00;55.10;1.00
2945;DHT22;1482;51.398;7.128;2022-08-11T07:40:27;54.80;1.00
2945;DHT22;1482;51.398;7.128;2022-08-11T07:42:54;55.50;1.00
2945;DHT22;1482;51.398;7.128;2022-08-11T07:45:22;56.40;1.00
2945;DHT22;1482;51.398;7.128;2022-08-11T07:48:07;55.90;1.00
2945;DHT22;1482;51.398;7.128;2022-08-11T07:50:52;56.00;1.00
2945;DHT22;1482;51.398;7.128;2022-08-11T07:53:38;56.80;1.00
2945;DHT22;1482;51.398;7.128;2022-08-11T07:56:05;56.70;1.00
2945;DHT22;1482;51.398;7.128;2022-08-11T07:58:34;56.90;1.00
2945;DHT22;1482;51.398;7.128;2022-08-11T08:01:23;56.70;1.00
2945;DHT22;1482;51.398;7.128;2022-08-11T08:04:11;57.00;1.00
2945;DHT22;1482;51.398;7.128;2022-08-11T08:06:56;57.00;1.00
2945;DHT22;1482;51.398;7.128;2022-08-11T08:09:42;57.80;1.00
2945;DHT22;1482;51.398;7.128;2022-08-11T08:12:28;57.30;1.00
2945;DHT22;1482;51.398;7.128;2022-08-11T08:15:14;57.60;1.00
2945;DHT22;1482;51.398;7.128;2022-08-11T08:18:02;57.80;1.00
2945;DHT22;1482;51.398;7.128;2022-08-11T08:20:32;58.10;1.00
2945;DHT22;1482;51.398;7.128;2022-08-11T08:23:00;57.80;1.00
2945;DHT22;1482;51.398;7.128;2022-08-11T08:25:29;57.80;1.00
2945;DHT22;1482;51.398;7.128;2022-08-11T08:27:57;57.20;1.00
2945;DHT22;1482;51.398;7.128;2022-08-11T08:30:27;56.40;1.00
2945;DHT22;1482;51.398;7.128;2022-08-11T08:33:30;56.00;1.00
2945;DHT22;1482;51.398;7.128;2022-08-11T08:36:02;54.90;1.00
2945;DHT22;1482;51.398;7.128;2022-08-11T08:41:04;50.70;1.00
2945;DHT22;1482;51.398;7.128;2022-08-11T08:43:31;48.90;1.00
2945;DHT22;1482;51.398;7.128;2022-08-11T08:45:57;47.10;1.00
2945;DHT22;1482;51.398;7.128;2022-08-11T08:48:24;45.60;1.00
2945;DHT22;1482;51.398;7.128;2022-08-11T08:50:59;43.40;1.00
2945;DHT22;1482;51.398;7.128;2022-08-11T08:53:48;42.50;1.00
2945;DHT22;1482;51.398;7.128;2022-08-11T08:56:14;41.10;1.00
2945;DHT22;1482;51.398;7.128;2022-08-11T08:58:41;40.40;1.00
2945;DHT22;1482;51.398;7.128;2022-08-11T09:01:09;39.60;1.00
2945;DHT22;1482;51.398;7.128;2022-08-11T09:03:36;39.20;1.00
2945;DHT22;1482;51.398;7.128;2022-08-11T09:06:02;38.50;1.00
2945;DHT22;1482;51.398;7.128;2022-08-11T09:08:30;38.40;1.00
2945;DHT22;1482;51.398;7.128;2022-08-11T09:10:58;37.80;1.00
2945;DHT22;1482;51.398;7.128;2022-08-11T09:13:45;37.60;1.00
2945;DHT22;1482;51.398;7.128;2022-08-11T09:16:11;37.20;1.00
2945;DHT22;1482;51.398;7.128;2022-08-11T09:18:39;36.90;1.00
2945;DHT22;1482;51.398;7.128;2022-08-11T09:21:08;36.80;1.00
2945;DHT22;1482;51.398;7.128;2022-08-11T09:23:33;36.60;1.00
2945;DHT22;1482;51.398;7.128;2022-08-11T09:26:18;36.50;1.00
2945;DHT22;1482;51.398;7.128;2022-08-11T09:29:02;36.70;1.00
2945;DHT22;1482;51.398;7.128;2022-08-11T09:31:32;36.80;1.00
2945;DHT22;1482;51.398;7.128;2022-08-11T09:33:58;36.70;1.00
2945;DHT22;1482;51.398;7.128;2022-08-11T09:36:25;36.70;1.00
2945;DHT22;1482;51.398;7.128;2022-08-11T09:39:11;36.60;1.00
2945;DHT22;1482;51.398;7.128;2022-08-11T09:41:56;36.40;1.00
2945;DHT22;1482;51.398;7.128;2022-08-11T09:44:22;36.30;1.00
2945;DHT22;1482;51.398;7.128;2022-08-11T09:47:07;36.30;1.00
2945;DHT22;1482;51.398;7.128;2022-08-11T09:49:42;35.90;1.00
2945;DHT22;1482;51.398;7.128;2022-08-11T09:52:09;35.90;1.00
2945;DHT22;1482;51.398;7.128;2022-08-11T09:54:35;35.60;1.00
2945;DHT22;1482;51.398;7.128;2022-08-11T09:57:01;35.70;1.00
2945;DHT22;1482;51.398;7.128;2022-08-11T09:59:46;35.70;1.00
2945;DHT22;1482;51.398;7.128;2022-08-11T10:02:12;35.90;1.00
2945;DHT22;1482;51.398;7.128;2022-08-11T10:04:41;36.10;1.00
2945;DHT22;1482;51.398;7.128;2022-08-11T10:07:09;35.90;1.00
2945;DHT22;1482;51.398;7.128;2022-08-11T10:09:44;35.50;1.00
2945;DHT22;1482;51.398;7.128;2022-08-11T10:12:20;35.60;1.00
2945;DHT22;1482;51.398;7.128;2022-08-11T10:14:49;35.20;1.00
2945;DHT22;1482;51.398;7.128;2022-08-11T10:17:38;34.70;1.00
2945;DHT22;1482;51.398;7.128;2022-08-11T10:20:26;33.90;1.00
2945;DHT22;1482;51.398;7.128;2022-08-11T10:22:53;34.20;1.00
2945;DHT22;1482;51.398;7.128;2022-08-11T10:25:37;34.30;1.00
2945;DHT22;1482;51.398;7.128;2022-08-11T10:28:22;34.40;1.00
2945;DHT22;1482;51.398;7.128;2022-08-11T10:30:50;34.00;1.00
2945;DHT22;1482;51.398;7.128;2022-08-11T10:33:35;34.20;1.00
2945;DHT22;1482;51.398;7.128;2022-08-11T10:36:21;34.40;1.00
2945;DHT22;1482;51.398;7.128;2022-08-11T10:38:47;34.70;1.00
2945;DHT22;1482;51.398;7.128;2022-08-11T10:41:17;34.70;1.00
2945;DHT22;1482;51.398;7.128;2022-08-11T10:44:04;34.60;1.00
2945;DHT22;1482;51.398;7.128;2022-08-11T10:46:31;34.80;1.00
2945;DHT22;1482;51.398;7.128;2022-08-11T10:49:15;34.60;1.00
2945;DHT22;1482;51.398;7.128;2022-08-11T10:51:42;34.20;1.00
2945;DHT22;1482;51.398;7.128;2022-08-11T10:54:26;34.10;1.00
2945;DHT22;1482;51.398;7.128;2022-08-11T10:57:13;34.30;1.00
2945;DHT22;1482;51.398;7.128;2022-08-11T10:59:58;34.60;1.00
2945;DHT22;1482;51.398;7.128;2022-08-11T11:02:24;35.00;1.00
2945;DHT22;1482;51.398;7.128;2022-08-11T11:07:21;35.40;1.00
2945;DHT22;1482;51.398;7.128;2022-08-11T11:10:01;35.40;1.00
2945;DHT22;1482;51.398;7.128;2022-08-11T11:15:20;35.30;1.00
2945;DHT22;1482;51.398;7.128;2022-08-11T11:18:08;34.80;1.00
2945;DHT22;1482;51.398;7.128;2022-08-11T11:20:40;34.80;1.00
2945;DHT22;1482;51.398;7.128;2022-08-11T11:23:11;35.00;1.00
2945;DHT22;1482;51.398;7.128;2022-08-11T11:31:44;34.80;1.00
2945;DHT22;1482;51.398;7.128;2022-08-11T11:37:37;35.00;1.00
2945;DHT22;1482;51.398;7.128;2022-08-11T11:40:14;35.00;1.00
2945;DHT22;1482;51.398;7.128;2022-08-11T11:42:43;35.00;1.00
2945;DHT22;1482;51.398;7.128;2022-08-11T11:45:13;35.20;1.00
2945;DHT22;1482;51.398;7.128;2022-08-11T11:47:40;35.50;1.00
2945;DHT22;1482;51.398;7.128;2022-08-11T11:50:07;35.30;1.00
2945;DHT22;1482;51.398;7.128;2022-08-11T11:52:33;35.10;1.00
2945;DHT22;1482;51.398;7.128;2022-08-11T11:55:01;35.00;1.00
2945;DHT22;1482;51.398;7.128;2022-08-11T11:57:27;35.00;1.00
2945;DHT22;1482;51.398;7.128;2022-08-11T12:00:12;34.40;1.00
2945;DHT22;1482;51.398;7.128;2022-08-11T12:03:02;34.10;1.00
2945;DHT22;1482;51.398;7.128;2022-08-11T12:05:30;34.00;1.00
2945;DHT22;1482;51.398;7.128;2022-08-11T12:07:58;34.10;1.00
2945;DHT22;1482;51.398;7.128;2022-08-11T12:13:10;34.20;1.00
2945;DHT22;1482;51.398;7.128;2022-08-11T12:15:54;34.40;1.00
2945;DHT22;1482;51.398;7.128;2022-08-11T12:18:20;34.10;1.00
2945;DHT22;1482;51.398;7.128;2022-08-11T12:20:46;34.10;1.00
2945;DHT22;1482;51.398;7.128;2022-08-11T12:23:13;34.30;1.00
2945;DHT22;1482;51.398;7.128;2022-08-11T12:25:59;34.40;1.00
2945;DHT22;1482;51.398;7.128;2022-08-11T12:28:44;34.60;1.00
2945;DHT22;1482;51.398;7.128;2022-08-11T12:31:10;34.80;1.00
2945;DHT22;1482;51.398;7.128;2022-08-11T12:33:37;34.90;1.00
2945;DHT22;1482;51.398;7.128;2022-08-11T12:36:03;35.00;1.00
2945;DHT22;1482;51.398;7.128;2022-08-11T12:38:30;34.90;1.00
2945;DHT22;1482;51.398;7.128;2022-08-11T12:40:57;34.90;1.00
2945;DHT22;1482;51.398;7.128;2022-08-11T12:43:44;35.10;1.00
2945;DHT22;1482;51.398;7.128;2022-08-11T12:46:35;35.10;1.00
2945;DHT22;1482;51.398;7.128;2022-08-11T12:49:16;35.10;1.00
2945;DHT22;1482;51.398;7.128;2022-08-11T12:52:10;35.20;1.00
2945;DHT22;1482;51.398;7.128;2022-08-11T13:00:16;35.10;1.00
2945;DHT22;1482;51.398;7.128;2022-08-11T13:03:02;35.00;1.00
2945;DHT22;1482;51.398;7.128;2022-08-11T13:05:47;34.10;1.00
2945;DHT22;1482;51.398;7.128;2022-08-11T13:08:16;34.00;1.00
2945;DHT22;1482;51.398;7.128;2022-08-11T13:10:44;33.00;1.00
2945;DHT22;1482;51.398;7.128;2022-08-11T13:13:30;32.90;1.00
2945;DHT22;1482;51.398;7.128;2022-08-11T13:15:57;32.90;1.00
2945;DHT22;1482;51.398;7.128;2022-08-11T13:18:22;33.00;1.00
2945;DHT22;1482;51.398;7.128;2022-08-11T13:20:56;33.20;1.00
2945;DHT22;1482;51.398;7.128;2022-08-11T13:23:23;33.50;1.00
2945;DHT22;1482;51.398;7.128;2022-08-11T13:25:51;33.50;1.00
2945;DHT22;1482;51.398;7.128;2022-08-11T13:28:19;33.60;1.00
2945;DHT22;1482;51.398;7.128;2022-08-11T13:30:46;33.90;1.00
2945;DHT22;1482;51.398;7.128;2022-08-11T13:33:32;34.00;1.00
2945;DHT22;1482;51.398;7.128;2022-08-11T13:35:58;33.90;1.00
2945;DHT22;1482;51.398;7.128;2022-08-11T13:38:25;34.00;1.00
2945;DHT22;1482;51.398;7.128;2022-08-11T13:40:53;34.10;1.00
2945;DHT22;1482;51.398;7.128;2022-08-11T13:43:21;34.10;1.00
2945;DHT22;1482;51.398;7.128;2022-08-11T13:45:48;34.10;1.00
2945;DHT22;1482;51.398;7.128;2022-08-11T13:48:15;34.20;1.00
2945;DHT22;1482;51.398;7.128;2022-08-11T13:50:41;34.30;1.00
2945;DHT22;1482;51.398;7.128;2022-08-11T13:53:29;34.30;1.00
2945;DHT22;1482;51.398;7.128;2022-08-11T13:55:57;34.10;1.00
2945;DHT22;1482;51.398;7.128;2022-08-11T13:58:25;34.20;1.00
2945;DHT22;1482;51.398;7.128;2022-08-11T14:00:52;34.20;1.00
2945;DHT22;1482;51.398;7.128;2022-08-11T14:03:26;34.20;1.00
2945;DHT22;1482;51.398;7.128;2022-08-11T14:05:54;34.30;1.00
2945;DHT22;1482;51.398;7.128;2022-08-11T14:08:25;34.30;1.00
2945;DHT22;1482;51.398;7.128;2022-08-11T14:10:55;33.90;1.00
2945;DHT22;1482;51.398;7.128;2022-08-11T14:13:44;33.90;1.00
2945;DHT22;1482;51.398;7.128;2022-08-11T14:16:34;33.60;1.00
2945;DHT22;1482;51.398;7.128;2022-08-11T14:19:04;33.50;1.00
2945;DHT22;1482;51.398;7.128;2022-08-11T14:21:36;33.60;1.00
2945;DHT22;1482;51.398;7.128;2022-08-11T14:24:21;33.50;1.00
2945;DHT22;1482;51.398;7.128;2022-08-11T14:26:48;33.00;1.00
2945;DHT22;1482;51.398;7.128;2022-08-11T14:29:21;32.70;1.00
2945;DHT22;1482;51.398;7.128;2022-08-11T14:31:53;32.50;1.00
2945;DHT22;1482;51.398;7.128;2022-08-11T14:34:21;32.30;1.00
2945;DHT22;1482;51.398;7.128;2022-08-11T14:36:55;32.20;1.00
2945;DHT22;1482;51.398;7.128;2022-08-11T14:39:29;32.30;1.00
2945;DHT22;1482;51.398;7.128;2022-08-11T14:41:58;32.40;1.00
2945;DHT22;1482;51.398;7.128;2022-08-11T14:44:47;32.50;1.00
2945;DHT22;1482;51.398;7.128;2022-08-11T14:47:34;32.50;1.00
2945;DHT22;1482;51.398;7.128;2022-08-11T14:50:01;32.20;1.00
2945;DHT22;1482;51.398;7.128;2022-08-11T14:52:31;32.20;1.00
2945;DHT22;1482;51.398;7.128;2022-08-11T14:54:57;32.30;1.00
2945;DHT22;1482;51.398;7.128;2022-08-11T14:57:42;32.50;1.00
2945;DHT22;1482;51.398;7.128;2022-08-11T15:00:10;32.60;1.00
2945;DHT22;1482;51.398;7.128;2022-08-11T15:02:40;32.60;1.00
2945;DHT22;1482;51.398;7.128;2022-08-11T15:05:25;32.40;1.00
2945;DHT22;1482;51.398;7.128;2022-08-11T15:07:53;32.40;1.00
2945;DHT22;1482;51.398;7.128;2022-08-11T15:10:20;32.40;1.00
2945;DHT22;1482;51.398;7.128;2022-08-11T15:12:47;32.50;1.00
2945;DHT22;1482;51.398;7.128;2022-08-11T15:15:13;32.60;1.00
2945;DHT22;1482;51.398;7.128;2022-08-11T15:18:01;32.50;1.00
2945;DHT22;1482;51.398;7.128;2022-08-11T15:20:28;32.50;1.00
2945;DHT22;1482;51.398;7.128;2022-08-11T15:23:12;32.40;1.00
2945;DHT22;1482;51.398;7.128;2022-08-11T15:26:06;32.20;1.00
2945;DHT22;1482;51.398;7.128;2022-08-11T15:28:36;32.10;1.00
2945;DHT22;1482;51.398;7.128;2022-08-11T15:31:24;32.10;1.00
2945;DHT22;1482;51.398;7.128;2022-08-11T15:34:11;32.10;1.00
2945;DHT22;1482;51.398;7.128;2022-08-11T15:37:01;32.10;1.00
2945;DHT22;1482;51.398;7.128;2022-08-11T15:39:52;32.00;1.00
2945;DHT22;1482;51.398;7.128;2022-08-11T15:45:51;31.90;1.00
2945;DHT22;1482;51.398;7.128;2022-08-11T15:51:18;31.70;1.00
2945;DHT22;1482;51.398;7.128;2022-08-11T15:53:52;31.30;1.00
2945;DHT22;1482;51.398;7.128;2022-08-11T15:56:20;31.20;1.00
2945;DHT22;1482;51.398;7.128;2022-08-11T15:58:49;31.20;1.00
2945;DHT22;1482;51.398;7.128;2022-08-11T16:01:36;31.10;1.00
2945;DHT22;1482;51.398;7.128;2022-08-11T16:04:24;31.00;1.00
2945;DHT22;1482;51.398;7.128;2022-08-11T16:09:33;31.20;1.00
2945;DHT22;1482;51.398;7.128;2022-08-11T16:12:02;31.30;1.00
2945;DHT22;1482;51.398;7.128;2022-08-11T16:14:32;31.30;1.00
2945;DHT22;1482;51.398;7.128;2022-08-11T16:17:18;31.50;1.00
2945;DHT22;1482;51.398;7.128;2022-08-11T16:19:48;31.50;1.00
2945;DHT22;1482;51.398;7.128;2022-08-11T16:22:20;31.40;1.00
2945;DHT22;1482;51.398;7.128;2022-08-11T16:24:53;30.90;1.00
2945;DHT22;1482;51.398;7.128;2022-08-11T16:27:20;31.10;1.00
2945;DHT22;1482;51.398;7.128;2022-08-11T16:29:49;31.00;1.00
2945;DHT22;1482;51.398;7.128;2022-08-11T16:32:18;31.10;1.00
2945;DHT22;1482;51.398;7.128;2022-08-11T16:34:55;31.10;1.00
2945;DHT22;1482;51.398;7.128;2022-08-11T16:37:41;31.10;1.00
2945;DHT22;1482;51.398;7.128;2022-08-11T16:40:26;31.10;1.00
2945;DHT22;1482;51.398;7.128;2022-08-11T16:42:54;31.10;1.00
2945;DHT22;1482;51.398;7.128;2022-08-11T16:45:40;31.00;1.00
2945;DHT22;1482;51.398;7.128;2022-08-11T16:48:27;30.80;1.00
2945;DHT22;1482;51.398;7.128;2022-08-11T16:50:55;30.80;1.00
2945;DHT22;1482;51.398;7.128;2022-08-11T16:53:21;30.90;1.00
2945;DHT22;1482;51.398;7.128;2022-08-11T16:55:47;30.80;1.00
2945;DHT22;1482;51.398;7.128;2022-08-11T16:58:14;30.70;1.00
2945;DHT22;1482;51.398;7.128;2022-08-11T17:01:00;30.40;1.00
2945;DHT22;1482;51.398;7.128;2022-08-11T17:03:26;30.40;1.00
2945;DHT22;1482;51.398;7.128;2022-08-11T17:06:12;30.10;1.00
2945;DHT22;1482;51.398;7.128;2022-08-11T17:08:57;30.10;1.00
2945;DHT22;1482;51.398;7.128;2022-08-11T17:11:47;30.10;1.00
2945;DHT22;1482;51.398;7.128;2022-08-11T17:14:49;30.00;1.00
2945;DHT22;1482;51.398;7.128;2022-08-11T17:17:27;30.00;1.00
2945;DHT22;1482;51.398;7.128;2022-08-11T17:20:00;30.00;1.00
2945;DHT22;1482;51.398;7.128;2022-08-11T17:22:28;30.00;1.00
2945;DHT22;1482;51.398;7.128;2022-08-11T17:25:14;29.90;1.00
2945;DHT22;1482;51.398;7.128;2022-08-11T17:27:42;29.80;1.00
2945;DHT22;1482;51.398;7.128;2022-08-11T17:30:11;29.60;1.00
2945;DHT22;1482;51.398;7.128;2022-08-11T17:32:42;29.60;1.00
2945;DHT22;1482;51.398;7.128;2022-08-11T17:35:32;29.60;1.00
2945;DHT22;1482;51.398;7.128;2022-08-11T17:38:16;29.50;1.00
2945;DHT22;1482;51.398;7.128;2022-08-11T17:40:46;29.40;1.00
2945;DHT22;1482;51.398;7.128;2022-08-11T17:43:31;29.30;1.00
2945;DHT22;1482;51.398;7.128;2022-08-11T17:46:16;29.20;1.00
2945;DHT22;1482;51.398;7.128;2022-08-11T17:49:02;29.30;1.00
2945;DHT22;1482;51.398;7.128;2022-08-11T17:51:33;29.30;1.00
2945;DHT22;1482;51.398;7.128;2022-08-11T17:54:18;29.30;1.00
2945;DHT22;1482;51.398;7.128;2022-08-11T17:57:04;29.30;1.00
2945;DHT22;1482;51.398;7.128;2022-08-11T17:59:50;29.20;1.00
2945;DHT22;1482;51.398;7.128;2022-08-11T18:02:20;29.20;1.00
2945;DHT22;1482;51.398;7.128;2022-08-11T18:05:05;29.20;1.00
2945;DHT22;1482;51.398;7.128;2022-08-11T18:07:31;29.20;1.00
2945;DHT22;1482;51.398;7.128;2022-08-11T18:10:16;29.10;1.00
2945;DHT22;1482;51.398;7.128;2022-08-11T18:13:01;29.10;1.00
2945;DHT22;1482;51.398;7.128;2022-08-11T18:15:47;29.00;1.00
2945;DHT22;1482;51.398;7.128;2022-08-11T18:18:31;28.90;1.00
2945;DHT22;1482;51.398;7.128;2022-08-11T18:21:20;28.90;1.00
2945;DHT22;1482;51.398;7.128;2022-08-11T18:24:09;28.80;1.00
2945;DHT22;1482;51.398;7.128;2022-08-11T18:26:58;28.70;1.00
2945;DHT22;1482;51.398;7.128;2022-08-11T18:29:43;28.60;1.00
2945;DHT22;1482;51.398;7.128;2022-08-11T18:32:31;28.50;1.00
2945;DHT22;1482;51.398;7.128;2022-08-11T18:35:18;28.50;1.00
2945;DHT22;1482;51.398;7.128;2022-08-11T18:38:03;28.50;1.00
2945;DHT22;1482;51.398;7.128;2022-08-11T18:40:50;28.40;1.00
2945;DHT22;1482;51.398;7.128;2022-08-11T18:43:38;28.40;1.00
2945;DHT22;1482;51.398;7.128;2022-08-11T18:46:26;28.30;1.00
2945;DHT22;1482;51.398;7.128;2022-08-11T18:49:14;28.20;1.00
2945;DHT22;1482;51.398;7.128;2022-08-11T18:52:00;28.00;1.00
2945;DHT22;1482;51.398;7.128;2022-08-11T18:54:47;27.90;1.00
2945;DHT22;1482;51.398;7.128;2022-08-11T18:57:35;27.70;1.00
2945;DHT22;1482;51.398;7.128;2022-08-11T19:00:20;27.60;1.00
2945;DHT22;1482;51.398;7.128;2022-08-11T19:03:06;27.40;1.00
2945;DHT22;1482;51.398;7.128;2022-08-11T19:05:51;27.30;1.00
2945;DHT22;1482;51.398;7.128;2022-08-11T19:08:41;27.20;1.00
2945;DHT22;1482;51.398;7.128;2022-08-11T19:11:26;27.10;1.00
2945;DHT22;1482;51.398;7.128;2022-08-11T19:14:12;27.10;1.00
2945;DHT22;1482;51.398;7.128;2022-08-11T19:16:59;26.90;1.00
2945;DHT22;1482;51.398;7.128;2022-08-11T19:19:44;26.90;1.00
2945;DHT22;1482;51.398;7.128;2022-08-11T19:22:29;26.80;1.00
2945;DHT22;1482;51.398;7.128;2022-08-11T19:25:15;26.70;1.00
2945;DHT22;1482;51.398;7.128;2022-08-11T19:28:03;26.60;99.90
2945;DHT22;1482;51.398;7.128;2022-08-11T19:30:49;26.60;99.90
2945;DHT22;1482;51.398;7.128;2022-08-11T19:33:35;26.40;99.90
2945;DHT22;1482;51.398;7.128;2022-08-11T19:36:21;26.30;99.90
2945;DHT22;1482;51.398;7.128;2022-08-11T19:39:08;26.30;99.90
2945;DHT22;1482;51.398;7.128;2022-08-11T19:41:53;26.20;99.90
2945;DHT22;1482;51.398;7.128;2022-08-11T19:44:39;26.20;99.90
2945;DHT22;1482;51.398;7.128;2022-08-11T19:47:23;26.10;99.90
2945;DHT22;1482;51.398;7.128;2022-08-11T19:50:08;26.10;99.90
2945;DHT22;1482;51.398;7.128;2022-08-11T19:52:53;26.00;99.90
2945;DHT22;1482;51.398;7.128;2022-08-11T19:55:38;25.90;99.90
2945;DHT22;1482;51.398;7.128;2022-08-11T19:58:26;25.90;99.90
2945;DHT22;1482;51.398;7.128;2022-08-11T20:01:10;25.80;99.90
2945;DHT22;1482;51.398;7.128;2022-08-11T20:03:54;25.70;99.90
2945;DHT22;1482;51.398;7.128;2022-08-11T20:06:39;25.70;99.90
2945;DHT22;1482;51.398;7.128;2022-08-11T20:09:23;25.50;99.90
2945;DHT22;1482;51.398;7.128;2022-08-11T20:12:10;25.50;99.90
2945;DHT22;1482;51.398;7.128;2022-08-11T20:14:55;25.50;99.90
2945;DHT22;1482;51.398;7.128;2022-08-11T20:17:40;25.40;99.90
2945;DHT22;1482;51.398;7.128;2022-08-11T20:20:25;25.30;99.90
2945;DHT22;1482;51.398;7.128;2022-08-11T20:23:13;25.30;99.90
2945;DHT22;1482;51.398;7.128;2022-08-11T20:25:59;25.20;99.90
2945;DHT22;1482;51.398;7.128;2022-08-11T20:28:44;25.20;99.90
2945;DHT22;1482;51.398;7.128;2022-08-11T20:31:29;25.10;99.90
2945;DHT22;1482;51.398;7.128;2022-08-11T20:34:15;25.00;99.90
2945;DHT22;1482;51.398;7.128;2022-08-11T20:37:02;25.00;99.90
2945;DHT22;1482;51.398;7.128;2022-08-11T20:39:47;25.00;99.90
2945;DHT22;1482;51.398;7.128;2022-08-11T20:42:33;24.90;99.90
2945;DHT22;1482;51.398;7.128;2022-08-11T20:45:19;24.80;99.90
2945;DHT22;1482;51.398;7.128;2022-08-11T20:48:05;24.70;99.90
2945;DHT22;1482;51.398;7.128;2022-08-11T20:50:50;24.70;99.90
2945;DHT22;1482;51.398;7.128;2022-08-11T20:53:38;24.60;1.00
2945;DHT22;1482;51.398;7.128;2022-08-11T20:56:25;24.60;99.90
2945;DHT22;1482;51.398;7.128;2022-08-11T20:59:11;24.60;99.90
2945;DHT22;1482;51.398;7.128;2022-08-11T21:01:57;24.50;99.90
2945;DHT22;1482;51.398;7.128;2022-08-11T21:04:42;24.50;99.90
2945;DHT22;1482;51.398;7.128;2022-08-11T21:07:32;24.40;99.90
2945;DHT22;1482;51.398;7.128;2022-08-11T21:10:17;24.40;99.90
2945;DHT22;1482;51.398;7.128;2022-08-11T21:13:03;24.30;99.90
2945;DHT22;1482;51.398;7.128;2022-08-11T21:15:48;24.20;99.90